Time;durP1;ratioP1;P1;durP2;ratioP2;P2;SDS_P1;SDS_P2;PMS_P1;PMS_P2;Temp;Humidity;BMP_temperature;BMP_pressure;BME280_temperature;BME280_humidity;BME280_pressure;Samples;Min_cycle;Max_cycle;Signal;HPM_P1;HPM_P2
2022/04/26 03:37:55;;;;;;;1.80;1.20;;;5.20;99.90;;;;;;5045650;28;20136;-59
2022/04/26 03:40:22;;;;;;;2.40;1.33;;;5.10;99.90;;;;;;5045039;28;20131;-59
2022/04/26 03:42:49;;;;;;;1.90;1.40;;;5.10;99.90;;;;;;5045790;28;20483;-59
2022/04/26 03:45:16;;;;;;;2.33;1.60;;;5.10;99.90;;;;;;5044526;28;20049;-59
2022/04/26 03:47:42;;;;;;;2.50;1.65;;;5.10;99.90;;;;;;5045398;28;20133;-58
2022/04/26 03:50:09;;;;;;;1.38;1.20;;;5.00;99.90;;;;;;5044297;28;20117;-58
2022/04/26 03:52:37;;;;;;;1.60;1.23;;;5.00;99.90;;;;;;5044305;28;20077;-59
2022/04/26 03:55:04;;;;;;;2.33;1.55;;;5.00;99.90;;;;;;5043484;28;20482;-59
2022/04/26 03:57:31;;;;;;;1.38;1.20;;;4.90;99.90;;;;;;5045235;28;20076;-59
2022/04/26 03:59:57;;;;;;;1.50;1.35;;;4.90;99.90;;;;;;5045206;28;20136;-59
2022/04/26 04:02:24;;;;;;;3.25;1.50;;;4.90;99.90;;;;;;5044628;28;20083;-59
2022/04/26 04:04:51;;;;;;;1.65;1.33;;;4.90;99.90;;;;;;5045027;28;20049;-58
2022/04/26 04:07:18;;;;;;;1.52;1.30;;;4.80;99.90;;;;;;5045384;28;20452;-59
2022/04/26 04:09:44;;;;;;;1.63;1.17;;;4.80;99.90;;;;;;5045392;28;20132;-58
2022/04/26 04:12:11;;;;;;;1.90;1.40;;;4.80;99.90;;;;;;5045332;28;20132;-58
2022/04/26 04:14:38;;;;;;;1.92;1.33;;;4.70;99.90;;;;;;5026133;28;20048;-59
2022/04/26 04:17:05;;;;;;;2.20;1.20;;;4.70;99.90;;;;;;5025894;28;20136;-59
2022/04/26 04:19:32;;;;;;;1.85;1.10;;;4.70;99.90;;;;;;5026599;28;20091;-58
2022/04/26 04:22:00;;;;;;;2.35;1.55;;;4.70;99.90;;;;;;5028317;28;20065;-58
2022/04/26 04:24:26;;;;;;;2.05;1.30;;;4.60;99.90;;;;;;5030223;28;20049;-58
2022/04/26 04:26:53;;;;;;;1.50;1.20;;;4.60;99.90;;;;;;5030218;28;20099;-59
2022/04/26 04:29:20;;;;;;;1.73;1.20;;;4.60;99.90;;;;;;5030195;28;20136;-59
2022/04/26 04:31:47;;;;;;;1.52;1.10;;;4.50;99.90;;;;;;5030822;28;20077;-59
2022/04/26 04:34:14;;;;;;;2.63;1.50;;;4.50;99.90;;;;;;5029522;28;20077;-59
2022/04/26 04:36:40;;;;;;;1.27;1.13;;;4.40;99.90;;;;;;5029669;28;20144;-59
2022/04/26 04:39:07;;;;;;;2.10;1.30;;;4.30;99.90;;;;;;5030229;28;20916;-59
2022/04/26 04:41:37;;;;;;;1.95;1.50;;;4.30;99.90;;;;;;5012795;28;20056;-59
2022/04/26 04:44:07;;;;;;;2.33;1.63;;;4.20;99.90;;;;;;5029856;28;20103;-58
2022/04/26 04:46:34;;;;;;;2.25;1.20;;;4.20;99.90;;;;;;5011481;28;20053;-58
2022/04/26 04:49:01;;;;;;;2.08;1.50;;;4.20;99.90;;;;;;5029398;28;20067;-59
2022/04/26 04:51:28;;;;;;;1.88;1.45;;;4.20;99.90;;;;;;5026230;28;20487;-59
2022/04/26 04:53:54;;;;;;;1.95;1.35;;;4.20;99.90;;;;;;5046922;28;20140;-59
2022/04/26 04:56:23;;;;;;;2.55;1.40;;;4.20;99.90;;;;;;5046202;28;20476;-59
2022/04/26 04:58:50;;;;;;;1.80;1.30;;;4.30;99.90;;;;;;5045812;28;20124;-58
2022/04/26 05:01:16;;;;;;;1.40;1.20;;;4.30;99.90;;;;;;5045269;28;20084;-59
2022/04/26 05:03:43;;;;;;;1.92;1.40;;;4.30;99.90;;;;;;5043274;28;20056;-59
2022/04/26 05:06:14;;;;;;;1.63;1.30;;;4.30;99.90;;;;;;5045437;28;20127;-59
2022/04/26 05:08:43;;;;;;;1.70;1.30;;;4.30;99.90;;;;;;5038749;28;20045;-59
2022/04/26 05:11:10;;;;;;;2.30;1.42;;;4.30;99.90;;;;;;5028365;28;20132;-59
2022/04/26 05:13:37;;;;;;;2.22;1.30;;;4.30;99.90;;;;;;5041206;28;20507;-59
2022/04/26 05:16:04;;;;;;;2.22;1.65;;;4.30;99.90;;;;;;5035691;28;20693;-59
2022/04/26 05:18:31;;;;;;;2.63;1.73;;;4.30;99.90;;;;;;5030233;28;20059;-58
2022/04/26 05:20:57;;;;;;;2.20;1.80;;;4.30;99.90;;;;;;5032106;28;20044;-59
2022/04/26 05:26:10;;;;;;;2.13;1.40;;;4.40;99.90;;;;;;5033387;28;20131;-59
2022/04/26 05:28:36;;;;;;;2.40;1.52;;;4.50;99.90;;;;;;5034503;28;20140;-59
2022/04/26 05:31:03;;;;;;;2.67;1.65;;;4.50;99.90;;;;;;5028698;28;20122;-58
2022/04/26 05:33:30;;;;;;;3.55;1.80;;;4.50;99.90;;;;;;5031129;28;20059;-59
2022/04/26 05:35:57;;;;;;;2.40;1.70;;;4.50;99.90;;;;;;5039748;28;20107;-59
2022/04/26 05:38:23;;;;;;;2.30;1.60;;;4.60;99.90;;;;;;5040769;28;20049;-58
2022/04/26 05:40:50;;;;;;;2.55;1.70;;;4.60;99.90;;;;;;5031310;28;20161;-60
2022/04/26 05:43:17;;;;;;;2.72;1.90;;;4.60;99.90;;;;;;5035101;28;20163;-58
2022/04/26 05:45:44;;;;;;;2.45;1.77;;;4.70;99.90;;;;;;5035354;28;21005;-58
2022/04/26 05:48:12;;;;;;;2.35;1.60;;;4.70;99.90;;;;;;5039955;28;20056;-59
2022/04/26 05:50:38;;;;;;;2.10;1.60;;;4.80;99.90;;;;;;5029982;28;20072;-59
2022/04/26 05:53:05;;;;;;;2.83;1.88;;;4.80;99.90;;;;;;5035215;28;20153;-59
2022/04/26 05:55:32;;;;;;;2.80;1.88;;;4.90;99.90;;;;;;5041086;28;20069;-59
2022/04/26 05:57:58;;;;;;;3.00;1.52;;;4.90;99.90;;;;;;5039403;28;20056;-59
2022/04/26 06:00:25;;;;;;;1.90;1.58;;;4.90;99.90;;;;;;5035427;28;20089;-58
2022/04/26 06:02:52;;;;;;;2.72;1.50;;;5.00;99.90;;;;;;5025972;28;20073;-61
2022/04/26 06:05:20;;;;;;;2.25;1.75;;;5.00;99.90;;;;;;5034736;28;20040;-58
2022/04/26 06:07:47;;;;;;;1.95;1.63;;;5.10;99.90;;;;;;5032099;28;20099;-58
2022/04/26 06:10:13;;;;;;;2.35;1.40;;;5.10;99.90;;;;;;5039139;28;20049;-58
2022/04/26 06:12:42;;;;;;;2.67;1.67;;;5.10;99.90;;;;;;5031173;28;20049;-59
2022/04/26 06:15:10;;;;;;;2.33;1.70;;;5.20;99.90;;;;;;5037204;28;20049;-63
2022/04/26 06:17:36;;;;;;;2.67;1.77;;;5.30;99.90;;;;;;5036646;28;20879;-59
2022/04/26 06:20:04;;;;;;;2.42;1.50;;;5.30;99.90;;;;;;5033174;28;20488;-59
2022/04/26 06:22:30;;;;;;;1.35;1.23;;;5.40;99.90;;;;;;5019227;28;20313;-59
2022/04/26 06:24:57;;;;;;;1.80;1.50;;;5.40;99.90;;;;;;5026963;28;20072;-60
2022/04/26 06:27:24;;;;;;;2.35;1.63;;;5.50;99.90;;;;;;5040606;28;20059;-60
2022/04/26 06:29:50;;;;;;;2.78;1.50;;;5.60;99.90;;;;;;5028578;28;20592;-60
2022/04/26 06:32:17;;;;;;;2.20;1.52;;;5.70;99.90;;;;;;5019597;28;20144;-60
2022/04/26 06:34:44;;;;;;;2.13;1.70;;;5.70;99.90;;;;;;5020276;28;20140;-60
2022/04/26 06:37:13;;;;;;;1.90;1.30;;;5.80;99.90;;;;;;5019593;28;20228;-61
2022/04/26 06:39:40;;;;;;;2.28;1.52;;;5.90;99.90;;;;;;5020054;28;20140;-60
2022/04/26 06:42:07;;;;;;;1.48;1.35;;;6.00;99.90;;;;;;5020794;28;20475;-60
2022/04/26 06:44:34;;;;;;;1.63;1.10;;;6.00;99.90;;;;;;5020560;28;20439;-60
2022/04/26 06:47:01;;;;;;;2.05;1.55;;;6.10;99.90;;;;;;5019510;28;20430;-60
2022/04/26 06:49:28;;;;;;;1.88;1.50;;;6.20;99.90;;;;;;5019278;28;20120;-61
2022/04/26 06:51:55;;;;;;;2.17;1.40;;;6.30;99.90;;;;;;5019880;28;20061;-60
2022/04/26 06:54:21;;;;;;;3.35;1.50;;;6.40;99.90;;;;;;5019850;28;20061;-60
2022/04/26 06:56:49;;;;;;;2.60;1.23;;;6.50;99.90;;;;;;5019802;28;20053;-60
2022/04/26 06:59:16;;;;;;;1.50;1.10;;;6.60;99.90;;;;;;5020230;28;20519;-60
2022/04/26 07:01:43;;;;;;;1.30;1.20;;;6.70;99.90;;;;;;5019054;28;20155;-60
2022/04/26 07:04:10;;;;;;;2.35;1.15;;;6.70;99.90;;;;;;5018184;28;20451;-60
2022/04/26 07:06:39;;;;;;;1.23;1.00;;;6.90;99.90;;;;;;5019978;28;20045;-60
2022/04/26 07:09:06;;;;;;;1.85;1.13;;;7.00;99.90;;;;;;5019902;28;20439;-59
2022/04/26 07:11:33;;;;;;;1.88;1.30;;;7.10;99.90;;;;;;5020581;28;20119;-61
2022/04/26 07:13:59;;;;;;;1.48;1.02;;;7.20;99.90;;;;;;5035402;28;20480;-59
2022/04/26 07:16:26;;;;;;;1.30;1.20;;;7.30;99.90;;;;;;5039478;28;20076;-59
2022/04/26 07:18:53;;;;;;;1.10;1.00;;;7.40;99.90;;;;;;5037913;28;20156;-60
2022/04/26 07:21:20;;;;;;;1.38;1.27;;;7.50;99.90;;;;;;5037526;28;20588;-59
2022/04/26 07:23:47;;;;;;;1.60;1.20;;;7.60;99.90;;;;;;5037205;28;20052;-59
2022/04/26 07:26:14;;;;;;;1.17;1.00;;;7.70;99.90;;;;;;5039041;28;20048;-60
2022/04/26 07:28:40;;;;;;;2.05;1.17;;;7.80;99.90;;;;;;5038923;28;20091;-59
2022/04/26 07:31:08;;;;;;;1.63;1.10;;;7.90;99.90;;;;;;5022553;28;20044;-60
2022/04/26 07:36:22;;;;;;;1.67;1.30;;;8.00;99.90;;;;;;5038199;28;20441;-59
2022/04/26 07:38:49;;;;;;;2.03;1.52;;;8.10;99.90;;;;;;5027387;28;20202;-59
2022/04/26 07:41:17;;;;;;;2.42;1.40;;;8.20;99.90;;;;;;5039596;28;20060;-59
2022/04/26 07:43:44;;;;;;;2.60;1.67;;;8.30;99.90;;;;;;5039194;28;20056;-59
2022/04/26 07:46:14;;;;;;;2.38;1.35;;;8.30;99.90;;;;;;5026476;28;20268;-60
2022/04/26 07:48:43;;;;;;;2.00;1.50;;;8.40;99.90;;;;;;5017736;28;20064;-59
2022/04/26 07:51:10;;;;;;;1.63;1.35;;;8.50;99.90;;;;;;5032037;28;20049;-59
2022/04/26 07:53:37;;;;;;;1.80;1.40;;;8.50;99.90;;;;;;5036167;28;20571;-59
2022/04/26 07:56:05;;;;;;;2.45;1.40;;;8.60;99.90;;;;;;5040102;28;20065;-60
2022/04/26 07:58:32;;;;;;;1.25;1.05;;;8.60;99.90;;;;;;5046978;28;20088;-59
2022/04/26 08:01:00;;;;;;;1.70;0.90;;;8.70;99.90;;;;;;5027654;28;20045;-59
2022/04/26 08:03:27;;;;;;;1.05;0.95;;;8.80;99.90;;;;;;5029245;28;20049;-59
2022/04/26 08:05:54;;;;;;;1.48;1.02;;;8.80;99.90;;;;;;5029528;28;20222;-59
2022/04/26 08:08:20;;;;;;;1.83;1.17;;;8.90;99.90;;;;;;5029306;28;20477;-59
2022/04/26 08:10:54;;;;;;;1.25;1.10;;;9.00;99.90;;;;;;5028169;28;20051;-59
2022/04/26 08:13:20;;;;;;;1.00;0.90;;;9.10;99.90;;;;;;5027642;28;20601;-58
2022/04/26 08:15:47;;;;;;;1.23;0.95;;;9.20;99.90;;;;;;5027207;28;20050;-59
2022/04/26 08:18:15;;;;;;;1.42;1.10;;;9.20;99.90;;;;;;5009805;28;20052;-57
2022/04/26 08:20:42;;;;;;;1.63;1.20;;;9.30;99.90;;;;;;5027320;28;20084;-59
2022/04/26 08:23:10;;;;;;;1.15;1.00;;;9.40;99.90;;;;;;5026587;28;20136;-60
2022/04/26 08:28:23;;;;;;;2.10;1.20;;;9.60;99.90;;;;;;5027601;28;20464;-60
2022/04/26 08:30:50;;;;;;;0.80;0.77;;;9.70;99.90;;;;;;5028383;28;20125;-60
2022/04/26 08:33:17;;;;;;;1.08;0.70;;;9.80;99.90;;;;;;5028942;28;20049;-60
2022/04/26 08:35:44;;;;;;;1.02;0.80;;;9.90;99.90;;;;;;5029110;28;20088;-59
2022/04/26 08:38:30;;;;;;;1.10;0.98;;;9.90;99.90;;;;;;5028826;28;20492;-59
2022/04/26 08:40:57;;;;;;;1.23;0.90;;;10.00;99.90;;;;;;5028754;28;20085;-59
2022/04/26 08:43:27;;;;;;;0.85;0.70;;;10.10;99.90;;;;;;5029286;28;20053;-58
2022/04/26 08:45:58;;;;;;;1.23;0.90;;;10.20;99.90;;;;;;5026701;28;20124;-59
2022/04/26 08:51:12;;;;;;;3.80;0.80;;;10.30;99.90;;;;;;5028551;28;20073;-59
2022/04/26 08:53:39;;;;;;;1.30;0.90;;;10.40;99.90;;;;;;5023964;28;20141;-59
2022/04/26 08:56:06;;;;;;;1.05;0.80;;;10.60;99.90;;;;;;5048933;28;20049;-59
2022/04/26 08:58:34;;;;;;;0.68;0.68;;;10.70;99.90;;;;;;5048911;28;20474;-59
2022/04/26 09:01:11;;;;;;;0.93;0.77;;;10.80;99.90;;;;;;5047780;28;20091;-60
2022/04/26 09:03:59;;;;;;;1.67;0.93;;;10.80;99.90;;;;;;5048296;28;20056;-59
2022/04/26 09:06:32;;;;;;;0.80;0.60;;;10.90;99.90;;;;;;5046224;28;20514;-59
2022/04/26 09:09:15;;;;;;;1.35;0.70;;;11.00;99.90;;;;;;5048124;28;20487;-59
2022/04/26 09:11:43;;;;;;;1.00;0.90;;;11.10;99.90;;;;;;5045651;28;20045;-59
2022/04/26 09:14:48;;;;;;;1.15;1.00;;;11.20;98.90;;;;;;5044563;28;20051;-59
2022/04/26 09:17:18;;;;;;;0.75;0.70;;;11.20;99.10;;;;;;5006753;28;20095;-59
2022/04/26 09:19:56;;;;;;;6.18;1.60;;;11.30;99.60;;;;;;5048237;28;20160;-59
2022/04/26 09:22:27;;;;;;;2.20;1.30;;;11.40;98.80;;;;;;5048447;28;20063;-59
2022/04/26 09:24:57;;;;;;;2.60;1.27;;;11.40;97.70;;;;;;5045096;28;20411;-59
2022/04/26 09:27:24;;;;;;;2.60;1.00;;;11.60;99.40;;;;;;5045253;28;20095;-59
2022/04/26 09:29:51;;;;;;;1.98;1.20;;;11.60;98.00;;;;;;5047088;28;20087;-59
2022/04/26 09:32:18;;;;;;;1.88;1.27;;;11.70;97.40;;;;;;5047290;28;20460;-59
2022/04/26 09:34:45;;;;;;;2.20;1.02;;;11.80;98.30;;;;;;5047767;28;20053;-59
2022/04/26 09:37:12;;;;;;;1.00;0.60;;;11.90;98.20;;;;;;5047550;28;20063;-59
2022/04/26 09:39:41;;;;;;;1.27;0.93;;;11.90;97.70;;;;;;5047045;28;20056;-60
2022/04/26 09:42:31;;;;;;;1.15;0.68;;;12.00;96.70;;;;;;5048008;28;20094;-59
2022/04/26 09:45:08;;;;;;;0.88;0.70;;;12.00;97.80;;;;;;5047640;28;20049;-59
2022/04/26 09:47:38;;;;;;;0.80;0.70;;;12.10;96.90;;;;;;5044428;28;20119;-59
2022/04/26 09:50:06;;;;;;;0.90;0.68;;;12.00;96.10;;;;;;5040532;28;20105;-58
2022/04/26 09:52:33;;;;;;;0.98;0.80;;;12.10;96.10;;;;;;5038655;28;20045;-59
2022/04/26 09:55:01;;;;;;;1.25;0.90;;;12.10;96.30;;;;;;5033575;28;20552;-59
2022/04/26 09:57:28;;;;;;;0.60;0.50;;;12.30;95.30;;;;;;5041182;28;20140;-59
2022/04/26 10:00:05;;;;;;;0.98;0.85;;;12.40;96.90;;;;;;5039232;28;20057;-59
2022/04/26 10:02:32;;;;;;;1.38;0.95;;;12.40;95.40;;;;;;5046025;28;20140;-58
2022/04/26 10:05:03;;;;;;;1.63;1.23;;;12.50;94.90;;;;;;5043271;28;20056;-59
2022/04/26 10:07:34;;;;;;;1.10;0.80;;;12.50;94.60;;;;;;5045023;28;20179;-59
2022/04/26 10:10:01;;;;;;;0.93;0.68;;;12.60;94.50;;;;;;5038802;28;20083;-59
2022/04/26 10:12:28;;;;;;;1.40;0.90;;;12.60;93.80;;;;;;5038341;28;20556;-59
2022/04/26 10:14:55;;;;;;;0.80;0.63;;;12.60;94.10;;;;;;5028465;28;20091;-59
2022/04/26 10:17:22;;;;;;;1.02;0.68;;;12.70;94.50;;;;;;5042008;28;20284;-59
2022/04/26 10:19:49;;;;;;;0.50;0.50;;;12.80;92.80;;;;;;5036519;28;20051;-59
2022/04/26 10:23:00;;;;;;;1.13;0.70;;;12.80;94.70;;;;;;5031443;28;20234;-59
2022/04/26 10:25:27;;;;;;;1.10;1.00;;;12.90;94.10;;;;;;5040991;28;20318;-59
2022/04/26 10:28:16;;;;;;;1.58;1.10;;;12.90;94.80;;;;;;5042458;28;20126;-59
2022/04/26 10:30:51;;;;;;;1.13;0.90;;;13.00;93.70;;;;;;5035069;28;20579;-59
2022/04/26 10:33:34;;;;;;;1.30;0.90;;;13.10;92.90;;;;;;5032408;28;20431;-58
2022/04/26 10:36:19;;;;;;;0.68;0.68;;;13.20;93.40;;;;;;5037742;28;20408;-58
2022/04/26 10:39:05;;;;;;;0.80;0.60;;;13.20;92.90;;;;;;5042052;28;21620;-59
2022/04/26 10:41:41;;;;;;;1.42;1.00;;;13.30;92.80;;;;;;5114906;27;20373;-60
2022/04/26 10:44:17;;;;;;;0.85;0.60;;;13.50;93.00;;;;;;5102194;28;20503;-59
2022/04/26 10:46:50;;;;;;;0.80;0.70;;;13.50;91.80;;;;;;5100992;28;20063;-59
2022/04/26 10:49:29;;;;;;;1.98;0.88;;;13.50;93.30;;;;;;5098067;28;20990;-58
2022/04/26 10:51:57;;;;;;;0.80;0.80;;;13.60;93.30;;;;;;5094969;28;20406;-59
2022/04/26 10:54:45;;;;;;;0.70;0.70;;;13.60;92.60;;;;;;5086689;28;20131;-59
2022/04/26 10:57:16;;;;;;;0.75;0.68;;;13.70;90.60;;;;;;5082466;28;20482;-59
2022/04/26 10:59:54;;;;;;;1.02;0.70;;;13.70;91.10;;;;;;5082437;28;20512;-59
2022/04/26 11:02:21;;;;;;;0.50;0.40;;;13.70;91.50;;;;;;5082069;28;20087;-59
2022/04/26 11:04:57;;;;;;;0.50;0.50;;;13.80;92.60;;;;;;5081929;28;20067;-59
2022/04/26 11:07:28;;;;;;;0.52;0.50;;;13.90;90.30;;;;;;5079444;28;20659;-60
2022/04/26 11:09:56;;;;;;;0.80;0.63;;;14.00;91.60;;;;;;5078072;28;20418;-59
2022/04/26 11:12:24;;;;;;;0.73;0.55;;;14.20;88.00;;;;;;5078350;28;20128;-59
2022/04/26 11:14:55;;;;;;;0.70;0.60;;;14.30;90.80;;;;;;5078743;28;20555;-60
2022/04/26 11:17:22;;;;;;;0.90;0.70;;;14.40;88.70;;;;;;5077284;28;20135;-59
2022/04/26 11:19:51;;;;;;;0.60;0.52;;;14.50;89.00;;;;;;5076920;28;20127;-60
2022/04/26 11:22:18;;;;;;;0.63;0.60;;;14.60;86.00;;;;;;5081244;28;20130;-60
2022/04/26 11:30:32;;;;;;;0.93;0.80;;;15.40;88.60;;;;;;5079878;28;20091;-60
2022/04/26 11:33:01;;;;;;;3.35;1.00;;;15.60;86.30;;;;;;5076151;28;20059;-61
2022/04/26 11:35:28;;;;;;;0.60;0.60;;;15.90;84.10;;;;;;5074378;28;20562;-61
2022/04/26 11:38:03;;;;;;;0.77;0.60;;;16.20;82.90;;;;;;5076194;28;20463;-60
2022/04/26 11:40:34;;;;;;;1.08;0.98;;;16.40;83.10;;;;;;5069752;28;20441;-61
2022/04/26 11:43:15;;;;;;;1.77;1.00;;;16.60;82.30;;;;;;5071831;28;20080;-61
2022/04/26 11:45:44;;;;;;;1.42;1.23;;;16.70;83.40;;;;;;5066595;28;20131;-60
2022/04/26 11:48:20;;;;;;;1.23;1.13;;;16.90;81.60;;;;;;5066134;28;20156;-61
2022/04/26 11:50:48;;;;;;;1.73;1.20;;;17.20;81.00;;;;;;5065785;28;20579;-61
2022/04/26 11:53:18;;;;;;;1.52;1.30;;;17.10;81.60;;;;;;5054995;28;20572;-60
2022/04/26 11:55:55;;;;;;;1.65;1.05;;;17.00;74.20;;;;;;5049690;28;20132;-59
2022/04/26 11:58:32;;;;;;;1.25;0.90;;;17.40;77.10;;;;;;5052840;28;20539;-59
2022/04/26 12:01:00;;;;;;;1.65;1.30;;;17.80;78.00;;;;;;5050154;28;20052;-58
2022/04/26 12:03:29;;;;;;;1.20;0.70;;;18.20;75.60;;;;;;5055992;28;20049;-59
2022/04/26 12:06:05;;;;;;;1.77;1.42;;;18.60;74.00;;;;;;5049133;28;20180;-59
2022/04/26 12:08:49;;;;;;;0.98;0.82;;;18.80;74.80;;;;;;5051903;28;20382;-58
2022/04/26 12:11:21;;;;;;;0.82;0.82;;;19.30;69.40;;;;;;5051351;28;20130;-58
2022/04/26 12:14:05;;;;;;;1.85;1.40;;;19.60;72.50;;;;;;5054316;28;20152;-58
2022/04/26 12:16:36;;;;;;;1.35;1.05;;;19.70;68.90;;;;;;5043812;28;20048;-59
2022/04/26 12:19:04;;;;;;;0.80;0.70;;;19.80;66.00;;;;;;5051855;28;20314;-59
2022/04/26 12:21:46;;;;;;;0.75;0.75;;;20.00;69.70;;;;;;5051516;28;20175;-59
2022/04/26 12:24:14;;;;;;;0.60;0.60;;;20.10;69.10;;;;;;5052719;28;20044;-59
2022/04/26 12:26:57;;;;;;;0.90;0.73;;;19.50;66.80;;;;;;5051147;28;20135;-59
2022/04/26 12:29:29;;;;;;;0.65;0.65;;;19.00;67.20;;;;;;5054098;28;20179;-59
2022/04/26 12:31:57;;;;;;;0.50;0.50;;;18.30;68.10;;;;;;5049408;28;20049;-59
2022/04/26 12:34:29;;;;;;;0.68;0.68;;;17.80;69.60;;;;;;5054737;28;20080;-59
2022/04/26 12:37:02;;;;;;;1.02;0.93;;;18.00;70.00;;;;;;5046146;28;20144;-59
2022/04/26 12:39:44;;;;;;;0.80;0.70;;;18.50;63.90;;;;;;5043405;28;20567;-59
2022/04/26 12:42:12;;;;;;;1.13;1.00;;;19.20;68.40;;;;;;5060948;28;20095;-59
2022/04/26 12:44:56;;;;;;;1.10;0.85;;;19.50;63.30;;;;;;5061379;28;20139;-59
2022/04/26 12:50:31;;;;;;;1.00;0.73;;;19.00;64.60;;;;;;5058545;28;20114;-59
2022/04/26 12:53:09;;;;;;;1.15;0.88;;;18.40;64.80;;;;;;5059125;28;20076;-57
2022/04/26 12:55:37;;;;;;;0.75;0.60;;;18.40;66.20;;;;;;5059822;28;20347;-59
2022/04/26 12:58:04;;;;;;;0.88;0.70;;;19.30;65.80;;;;;;5061013;28;20084;-59
2022/04/26 13:00:31;;;;;;;0.80;0.80;;;20.40;63.90;;;;;;5058748;28;20052;-59
2022/04/26 13:03:03;;;;;;;1.23;0.98;;;21.10;58.60;;;;;;5059728;28;20486;-59
2022/04/26 13:05:45;;;;;;;1.15;0.65;;;21.40;62.00;;;;;;5058805;28;20056;-59
2022/04/26 13:08:13;;;;;;;0.60;0.60;;;21.40;59.00;;;;;;5059653;28;20187;-59
2022/04/26 13:10:41;;;;;;;1.42;0.90;;;20.70;59.10;;;;;;5058739;28;20126;-59
2022/04/26 13:13:08;;;;;;;0.90;0.90;;;20.70;59.00;;;;;;5058655;28;20076;-59
2022/04/26 13:15:35;;;;;;;1.30;0.90;;;21.10;57.00;;;;;;5058322;28;20052;-59
2022/04/26 13:18:03;;;;;;;0.68;0.60;;;21.70;57.80;;;;;;5059327;28;20302;-59
2022/04/26 13:20:30;;;;;;;0.60;0.60;;;22.70;55.70;;;;;;5058284;28;20123;-59
2022/04/26 13:22:57;;;;;;;1.10;0.90;;;23.40;55.50;;;;;;5060071;28;20155;-59
2022/04/26 13:25:24;;;;;;;1.27;1.00;;;23.00;52.20;;;;;;5059405;28;20131;-60
2022/04/26 13:27:50;;;;;;;2.10;1.45;;;23.00;54.40;;;;;;5059544;28;20082;-59
2022/04/26 13:30:18;;;;;;;1.80;1.02;;;23.00;52.80;;;;;;5059489;28;20052;-59
2022/04/26 13:32:44;;;;;;;2.58;0.88;;;23.60;52.50;;;;;;5060046;28;20127;-59
2022/04/26 13:35:11;;;;;;;0.80;0.70;;;23.40;52.70;;;;;;5059360;28;20487;-59
2022/04/26 13:37:39;;;;;;;1.77;0.70;;;22.40;52.70;;;;;;5060351;28;20292;-59
2022/04/26 13:40:06;;;;;;;1.00;0.50;;;21.20;53.40;;;;;;5059944;28;20056;-58
2022/04/26 13:42:35;;;;;;;0.70;0.63;;;20.60;53.80;;;;;;5058956;28;20507;-59
2022/04/26 13:45:02;;;;;;;0.80;0.73;;;21.10;53.90;;;;;;5059617;28;20648;-58
2022/04/26 13:47:29;;;;;;;0.60;0.60;;;22.10;52.40;;;;;;5060045;28;20141;-59
2022/04/26 13:49:56;;;;;;;0.75;0.70;;;22.90;52.20;;;;;;5059317;28;20048;-60
2022/04/26 13:52:23;;;;;;;0.50;0.50;;;23.80;53.00;;;;;;5059742;28;20565;-59
2022/04/26 13:54:50;;;;;;;0.88;0.60;;;23.00;52.70;;;;;;5059604;28;20202;-60
2022/04/26 13:57:17;;;;;;;0.75;0.60;;;22.20;52.30;;;;;;5059923;28;20068;-59
2022/04/26 13:59:44;;;;;;;0.60;0.60;;;21.30;54.20;;;;;;5059484;28;20049;-59
2022/04/26 14:02:11;;;;;;;0.57;0.52;;;20.80;53.00;;;;;;5058859;28;20095;-59
2022/04/26 14:04:39;;;;;;;0.98;0.65;;;20.50;54.70;;;;;;5059308;28;20131;-59
2022/04/26 14:07:05;;;;;;;0.80;0.70;;;20.40;56.00;;;;;;5041234;28;20334;-59
2022/04/26 14:09:32;;;;;;;0.90;0.82;;;19.90;56.50;;;;;;5059378;28;20395;-58
2022/04/26 14:12:00;;;;;;;0.80;0.60;;;19.60;56.20;;;;;;5059337;28;20471;-59
2022/04/26 14:22:45;;;;;;;0.70;0.50;;;18.80;58.30;;;;;;5060150;28;20464;-59
2022/04/26 14:25:13;;;;;;;1.02;0.60;;;18.80;57.80;;;;;;5059388;28;20052;-60
2022/04/26 14:27:42;;;;;;;2.20;1.10;;;18.70;57.60;;;;;;5059825;28;20697;-60
2022/04/26 14:30:10;;;;;;;1.30;0.60;;;18.60;56.50;;;;;;5057967;28;20113;-60
2022/04/26 14:32:57;;;;;;;0.90;0.60;;;18.50;58.70;;;;;;5059492;28;20049;-60
2022/04/26 14:35:25;;;;;;;0.98;0.70;;;18.50;57.20;;;;;;5058462;28;20118;-60
2022/04/26 14:37:53;;;;;;;1.02;0.73;;;18.30;58.40;;;;;;5059569;28;20059;-60
2022/04/26 14:40:20;;;;;;;1.20;0.80;;;18.30;59.20;;;;;;5058920;28;20096;-60
2022/04/26 14:42:47;;;;;;;0.68;0.68;;;18.90;59.10;;;;;;5059855;28;20121;-60
2022/04/26 14:45:14;;;;;;;1.02;0.68;;;18.90;59.30;;;;;;5058693;28;20267;-60
2022/04/26 14:47:41;;;;;;;1.60;0.90;;;18.90;58.60;;;;;;5059284;28;20056;-60
2022/04/26 14:50:09;;;;;;;3.22;0.95;;;18.50;59.90;;;;;;5058122;28;20563;-60
2022/04/26 14:52:37;;;;;;;1.70;1.00;;;18.30;59.00;;;;;;5059861;28;20506;-60
2022/04/26 14:55:07;;;;;;;1.60;0.90;;;18.30;59.40;;;;;;5058956;28;20117;-60
2022/04/26 14:57:37;;;;;;;0.90;0.75;;;18.30;59.00;;;;;;5059824;28;20529;-61
2022/04/26 15:00:05;;;;;;;1.25;0.90;;;18.30;59.90;;;;;;5058240;28;20083;-59
2022/04/26 15:02:38;;;;;;;2.75;0.75;;;18.30;60.40;;;;;;5059482;28;20065;-60
2022/04/26 15:05:08;;;;;;;0.82;0.75;;;18.30;59.10;;;;;;5058622;28;20045;-60
2022/04/26 15:10:21;;;;;;;0.60;0.60;;;18.20;59.80;;;;;;5058661;28;20549;-60
2022/04/26 15:18:23;;;;;;;0.52;0.47;;;17.80;59.50;;;;;;5058807;28;20519;-60
2022/04/26 15:20:53;;;;;;;1.25;0.65;;;18.00;60.50;;;;;;5058138;28;20144;-60
2022/04/26 15:23:20;;;;;;;1.35;0.90;;;18.00;60.50;;;;;;5058778;28;20131;-60
2022/04/26 15:25:55;;;;;;;0.65;0.60;;;18.00;61.70;;;;;;5059102;28;20044;-60
2022/04/26 15:28:23;;;;;;;1.58;1.05;;;17.90;62.60;;;;;;5062360;28;20505;-60
2022/04/26 15:30:50;;;;;;;1.05;0.90;;;17.60;63.10;;;;;;5061546;28;20594;-60
2022/04/26 15:33:17;;;;;;;1.48;0.98;;;17.60;63.00;;;;;;5062713;28;20052;-60
2022/04/26 15:35:44;;;;;;;1.08;1.00;;;17.90;63.70;;;;;;5061821;28;20144;-60
2022/04/26 15:38:12;;;;;;;1.90;0.90;;;18.10;63.40;;;;;;5062795;28;20049;-60
2022/04/26 15:40:40;;;;;;;1.27;0.88;;;18.30;63.60;;;;;;5060556;28;20184;-60
2022/04/26 15:43:07;;;;;;;0.85;0.70;;;18.50;62.70;;;;;;5061978;28;20553;-60
2022/04/26 15:45:33;;;;;;;0.68;0.55;;;18.90;62.50;;;;;;5061587;28;20486;-60
2022/04/26 15:48:00;;;;;;;1.05;0.80;;;18.90;62.10;;;;;;5062273;28;20135;-60
2022/04/26 15:50:28;;;;;;;1.70;1.13;;;19.10;62.20;;;;;;5061268;28;20048;-60
2022/04/26 15:52:55;;;;;;;0.98;0.77;;;19.00;63.70;;;;;;5062732;28;20103;-61
2022/04/26 15:55:22;;;;;;;1.40;0.70;;;18.90;63.50;;;;;;5062351;28;20080;-60
2022/04/26 15:57:51;;;;;;;0.88;0.80;;;18.90;63.60;;;;;;5061329;28;20306;-60
2022/04/26 16:00:20;;;;;;;1.38;1.27;;;18.70;63.40;;;;;;5060736;28;20052;-60
2022/04/26 16:02:47;;;;;;;0.60;0.60;;;19.10;64.20;;;;;;5062114;28;20180;-60
2022/04/26 16:05:15;;;;;;;0.65;0.65;;;19.10;63.70;;;;;;5054770;28;20040;-61
2022/04/26 16:07:41;;;;;;;1.00;0.75;;;19.40;63.90;;;;;;5060645;28;20199;-59
2022/04/26 16:21:10;;;;;;;1.08;0.90;;;19.00;63.60;;;;;;5060032;28;20080;-59
2022/04/26 16:23:36;;;;;;;1.15;0.77;;;18.70;62.20;;;;;;5061254;28;20621;-60
2022/04/26 16:26:05;;;;;;;1.25;0.88;;;18.30;64.40;;;;;;5058743;28;20516;-60
2022/04/26 16:28:33;;;;;;;1.33;0.90;;;18.10;66.00;;;;;;5057889;28;20475;-60
2022/04/26 16:31:00;;;;;;;0.63;0.60;;;17.80;66.60;;;;;;5058879;28;20315;-60
2022/04/26 16:33:27;;;;;;;2.33;0.90;;;17.70;67.70;;;;;;5053575;28;20102;-60
2022/04/26 16:35:54;;;;;;;0.57;0.57;;;17.60;68.00;;;;;;5052536;28;20048;-60
2022/04/26 16:38:21;;;;;;;1.00;0.80;;;17.50;68.90;;;;;;5052510;28;20096;-60
2022/04/26 16:40:48;;;;;;;0.82;0.60;;;17.40;69.30;;;;;;5050760;28;20064;-60
2022/04/26 16:43:16;;;;;;;1.05;0.60;;;17.30;69.20;;;;;;5061646;28;20563;-59
2022/04/26 16:45:47;;;;;;;0.60;0.60;;;17.30;69.50;;;;;;5060362;28;20159;-59
2022/04/26 16:48:14;;;;;;;1.05;0.70;;;17.20;67.60;;;;;;5060463;28;20052;-60
2022/04/26 16:50:41;;;;;;;2.03;0.70;;;17.20;67.30;;;;;;5060701;28;20053;-60
2022/04/26 16:53:08;;;;;;;0.82;0.52;;;17.00;66.00;;;;;;5061125;28;20053;-60
2022/04/26 16:55:34;;;;;;;0.75;0.60;;;17.00;67.50;;;;;;5060595;28;20071;-59
2022/04/26 16:58:01;;;;;;;0.95;0.80;;;16.90;72.50;;;;;;5057285;28;20124;-59
2022/04/26 17:00:28;;;;;;;0.95;0.70;;;16.80;74.10;;;;;;5046541;28;20057;-60
2022/04/26 17:02:56;;;;;;;1.85;0.80;;;16.80;75.40;;;;;;5061165;28;20132;-59
2022/04/26 17:05:23;;;;;;;1.40;0.80;;;16.70;75.00;;;;;;5059951;28;20442;-60
2022/04/26 17:07:50;;;;;;;1.10;0.90;;;16.70;76.10;;;;;;5054596;28;20054;-59
2022/04/26 17:10:18;;;;;;;0.90;0.70;;;16.70;76.10;;;;;;5051103;28;20140;-59
2022/04/26 17:12:48;;;;;;;1.17;0.80;;;16.70;77.50;;;;;;5043067;28;21018;-60
2022/04/26 17:15:19;;;;;;;0.70;0.60;;;16.60;77.40;;;;;;5059929;28;20128;-59
2022/04/26 17:17:46;;;;;;;1.23;0.68;;;16.50;77.60;;;;;;5060635;28;20052;-59
2022/04/26 17:20:14;;;;;;;1.58;0.95;;;16.30;77.60;;;;;;5059450;28;20919;-59
2022/04/26 17:22:42;;;;;;;1.30;0.80;;;16.20;78.20;;;;;;5049843;28;20079;-59
2022/04/26 17:25:15;;;;;;;1.30;1.10;;;16.10;79.70;;;;;;5046418;28;20047;-59